Dixon, South Dakota
Current Conditions -  °F | °C
As of 6:53 PM on Monday 24 Nov 2014 (Local Time) from KICR Reporting Station
Clear Clear  
Wind Chill: 11°   Ceiling: Unl
Heat Index: 21°   Visibility: 10mi
Dew Point:   Wind: 8mph
Humidity: 60%   Direction: 310°NW
Pressure: 30.04"   Gusts: NA
Location:  43.2419°N, 99.4287°W
Report Text: KICR 250053Z AUTO 31007KT 10SM CLR M06/M13 A3004 RMK AO2 SLP205 T10611128
Loading
Personal Weather Stations






























Interactive Weather Map New forecast layout! Learn more

10-Day Weather Forecast

Advertisements
Track Severe Weather on mobile